Terminal Aerodrome Forecast
Issued by NWS

Home | Current Version | Previous Version | Text Only | Print | Product List | Glossary On
Versions: 1 2 3 4 5 6 7 8 9 10 11 12 13 14 15 16 17
000
FTUS45 KABQ 261700 RRA
TAFGUP
TAF
KGUP 261741Z 2618/2718 22010KT P6SM VCSH OVC025
     FM262000 31012G20KT P6SM -SHRA OVC035
     FM270200 34005KT P6SM VCSH OVC040
     FM270700 VRB03KT P6SM OVC020=

USA.gov is the U.S. government's official web portal to all federal, state and local government web resources and services.